Aérodrome :
LOGIN :

S'inscrire | Disclaimer

   EN    FR    IT 

 










Légende :    VFR   VFR Marginal   IFR   IFR Intensif   IFR Très Intensif
Visi : 
Plafond : 
>= 8 km
>= 3000ft
5 à 8 km
1000 à 3000 ft
1500m à 5 km
500 à 1000 ft
800 à 1500m
200 à 500 ft
< 800m
< 200 ft
Symboles :   Orages  Brouillard  Fortes neiges  Fortes précipitations  Vent > 20 kt
SIGMETs :   Divers  Orages  Givrage  Turbulence  Onde Orograph.  Cendres Volcan.






- Altitude de l'aérodrome : 640 ft
- Code IATA : AOC


EDAC - Altenburg-Nobitz

DERNIER METAR :
  • 050050Z AUTO 14002KT 9999 // BKN130/// OVC210/// 14/14 Q1011

METARs EXPIRÉS :
  • 050020Z AUTO VRB01KT 9999 // FEW095/// SCT120/// BKN220/// 15/14 Q1011
  • 042350Z AUTO 00000KT 9999 // BKN098/// OVC120/// 15/14 Q1012
  • 042320Z AUTO VRB02KT 9999 // OVC095/// 15/14 Q1012
  • 042250Z AUTO 14002KT 9999 // OVC096/// 16/14 Q1012
  • 042220Z AUTO 15002KT 9999 // OVC095/// 16/14 Q1012
  • 042150Z AUTO 13003KT 9999 // SCT095/// OVC110/// 16/14 Q1012

TAF TAF EDAC
Valide du 04 à 18h jusqu'au 05 à 03h UTC


041700Z 0418/0503 09005KT 9999 SCT030
PROB30
TEMPO 0418/0421 SHRA BKN020CB



MET'MAP, la Météo Aéronautique d'un coup d'oeil ! - Copyright ORBIFLY Décembre 2007 - Disclaimer

ORBIFLY MET'MAP TEAM :

Programmation & Développement : Alexandra Zaïnal
Sur une idée originale de : Baudouin d'Aumeries
Assistance à la programmation : Marc-Olivier Méhu
Soutien technique & logistique : Manuel Goepfert

Contact : metmap@orbifly.com




SOURCES & CREDITS :

   NOAA